Glover, North Dakota
Current Conditions -  °F | °C
As of 4:15 PM on Thursday 27 Nov 2014 (Local Time) from KGWR Reporting Station
Broken Clouds Broken Clouds  
Wind Chill: -8°   Ceiling: 4000
Heat Index:   Visibility: 10mi
Dew Point: -2°   Wind: 15mph
Humidity: 62%   Direction: 130°SE
Pressure: 30.24"   Gusts: NA
Location:  46.1099°N, 98.1335°W
Report Text: KGWR 272215Z AUTO 13013KT 10SM BKN040 M13/M19 A3024 RMK A01 P000
Loading
Personal Weather Stations






























Interactive Weather Map New forecast layout! Learn more

10-Day Weather Forecast

Advertisements
Track Severe Weather on mobile